Time;durP1;ratioP1;P1;durP2;ratioP2;P2;SDS_P1;SDS_P2;PMS_P1;PMS_P2;Temp;Humidity;BMP_temperature;BMP_pressure;BME280_temperature;BME280_humidity;BME280_pressure;Samples;Min_cycle;Max_cycle;Signal;HPM_P1;HPM_P2
2022/10/21 00:01:50;;;;;;;;;;;;;;;9.85;60.65;101435.25;5057439;28;19974;-50
2022/10/21 00:04:16;;;;;;;;;;;;;;;9.86;60.80;101429.09;5058757;28;20253;-52
2022/10/21 00:06:41;;;;;;;;;;;;;;;9.88;60.62;101432.50;5059288;28;19925;-50
2022/10/21 00:09:06;;;;;;;;;;;;;;;9.89;60.74;101420.22;5059356;28;19931;-52
2022/10/21 00:11:32;;;;;;;;;;;;;;;9.91;60.76;101424.50;5049438;28;20019;-50
2022/10/21 00:13:57;;;;;;;;;;;;;;;9.94;60.68;101420.84;5055126;28;19920;-50
2022/10/21 00:16:22;;;;;;;;;;;;;;;9.95;60.79;101422.56;5055315;28;20314;-50
2022/10/21 00:18:48;;;;;;;;;;;;;;;9.98;60.83;101421.59;5058214;28;20584;-50
2022/10/21 00:21:14;;;;;;;;;;;;;;;9.98;60.79;101424.22;5058750;28;19925;-50
2022/10/21 00:23:41;;;;;;;;;;;;;;;9.99;60.84;101421.53;5058088;28;19966;-51
2022/10/21 00:26:06;;;;;;;;;;;;;;;10.00;60.78;101417.97;5056909;28;20043;-50
2022/10/21 00:28:32;;;;;;;;;;;;;;;10.04;60.74;101416.91;5056694;28;20019;-51
2022/10/21 00:30:58;;;;;;;;;;;;;;;10.05;60.73;101413.38;5053680;28;20837;-50
2022/10/21 00:33:24;;;;;;;;;;;;;;;10.10;60.81;101414.91;5057468;28;19931;-50
2022/10/21 00:35:51;;;;;;;;;;;;;;;10.11;60.62;101406.09;5053283;28;19930;-51
2022/10/21 00:38:16;;;;;;;;;;;;;;;10.12;60.89;101397.31;5054719;28;19924;-51
2022/10/21 00:40:41;;;;;;;;;;;;;;;10.14;60.89;101390.19;5058063;28;19939;-51
2022/10/21 00:43:08;;;;;;;;;;;;;;;10.16;61.10;101385.72;5058595;28;20023;-51
2022/10/21 00:45:33;;;;;;;;;;;;;;;10.16;61.03;101368.16;5057445;28;19929;-51
2022/10/21 00:48:01;;;;;;;;;;;;;;;10.18;61.07;101370.72;5055640;28;19929;-50
2022/10/21 00:50:36;;;;;;;;;;;;;;;10.18;61.19;101368.94;5054876;28;20059;-51
2022/10/21 00:53:03;;;;;;;;;;;;;;;10.18;61.06;101376.84;5056898;28;19923;-50
2022/10/21 00:55:30;;;;;;;;;;;;;;;10.18;61.40;101360.22;5053181;28;19932;-51
2022/10/21 00:57:55;;;;;;;;;;;;;;;10.19;61.39;101377.69;5059556;28;19943;-50
2022/10/21 01:00:21;;;;;;;;;;;;;;;10.18;61.40;101397.88;5055305;28;20297;-50
2022/10/21 01:02:46;;;;;;;;;;;;;;;10.17;61.72;101400.59;5052058;28;20028;-51
2022/10/21 01:05:12;;;;;;;;;;;;;;;10.16;61.83;101398.88;5057053;28;19976;-52
2022/10/21 01:07:37;;;;;;;;;;;;;;;10.16;61.62;101388.34;5055151;28;20560;-51
2022/10/21 01:10:03;;;;;;;;;;;;;;;10.16;61.69;101376.03;5054584;28;19916;-51
2022/10/21 01:12:47;;;;;;;;;;;;;;;10.17;61.89;101384.81;5053131;28;21199;-51
2022/10/21 01:15:31;;;;;;;;;;;;;;;10.17;61.80;101369.88;5054537;28;19963;-51
2022/10/21 01:18:13;;;;;;;;;;;;;;;10.17;62.01;101367.22;5057266;28;19916;-51
2022/10/21 01:20:57;;;;;;;;;;;;;;;10.16;62.05;101383.09;5050438;28;19928;-51
2022/10/21 01:23:37;;;;;;;;;;;;;;;10.16;62.24;101377.84;5053967;28;19924;-52
2022/10/21 01:26:21;;;;;;;;;;;;;;;10.16;62.25;101369.94;5053532;28;20768;-52
2022/10/21 01:28:59;;;;;;;;;;;;;;;10.15;62.38;101384.00;5052080;28;19921;-51
2022/10/21 01:31:29;;;;;;;;;;;;;;;10.12;62.54;101377.13;5051900;28;20344;-51
2022/10/21 01:34:06;;;;;;;;;;;;;;;10.12;62.59;101365.75;5055521;28;19920;-51
2022/10/21 01:36:34;;;;;;;;;;;;;;;10.13;62.72;101377.97;5055174;28;19920;-51
2022/10/21 01:39:05;;;;;;;;;;;;;;;10.14;62.70;101390.19;5056224;28;19981;-51
2022/10/21 01:41:47;;;;;;;;;;;;;;;10.15;62.69;101384.00;5054153;28;20010;-51
2022/10/21 01:44:20;;;;;;;;;;;;;;;10.15;62.88;101389.28;5053281;28;19951;-52
2022/10/21 01:46:48;;;;;;;;;;;;;;;10.14;62.84;101379.69;5050515;28;19921;-51
2022/10/21 01:49:18;;;;;;;;;;;;;;;10.15;62.98;101384.00;5056106;28;19928;-51
2022/10/21 01:51:43;;;;;;;;;;;;;;;10.14;63.17;101377.06;5056322;28;20389;-51
2022/10/21 01:54:12;;;;;;;;;;;;;;;10.15;63.02;101368.25;5053633;28;19929;-50
2022/10/21 01:56:40;;;;;;;;;;;;;;;10.16;63.08;101347.13;5057208;28;19927;-51
2022/10/21 01:59:06;;;;;;;;;;;;;;;10.16;63.37;101338.38;5056278;28;19921;-50
2022/10/21 02:01:33;;;;;;;;;;;;;;;10.15;63.34;101340.16;5054630;28;19917;-51
2022/10/21 02:04:01;;;;;;;;;;;;;;;10.16;63.14;101331.34;5056939;28;19925;-51
2022/10/21 02:06:27;;;;;;;;;;;;;;;10.17;63.49;101337.47;5056288;28;20397;-51
2022/10/21 02:08:52;;;;;;;;;;;;;;;10.17;63.42;101334.84;5055885;28;19962;-51
2022/10/21 02:11:18;;;;;;;;;;;;;;;10.17;63.53;101332.22;5058022;28;20271;-50
2022/10/21 02:13:55;;;;;;;;;;;;;;;10.16;63.51;101343.66;5054359;28;19920;-51
2022/10/21 02:16:23;;;;;;;;;;;;;;;10.16;63.50;101335.75;5057263;28;19922;-51
2022/10/21 02:18:48;;;;;;;;;;;;;;;10.16;63.67;101323.44;5056868;28;20301;-51
2022/10/21 02:21:17;;;;;;;;;;;;;;;10.17;63.51;101316.44;5057813;28;20417;-50
2022/10/21 02:23:49;;;;;;;;;;;;;;;10.17;63.58;101312.00;5058425;28;20019;-51
2022/10/21 02:26:15;;;;;;;;;;;;;;;10.17;63.76;101317.25;5057978;28;20039;-51
2022/10/21 02:28:40;;;;;;;;;;;;;;;10.18;63.54;101318.13;5059563;28;20015;-51
2022/10/21 02:31:26;;;;;;;;;;;;;;;10.18;63.66;101331.28;5056122;28;20784;-51
2022/10/21 02:34:10;;;;;;;;;;;;;;;10.20;63.88;101326.81;5058520;28;19917;-51
2022/10/21 02:36:45;;;;;;;;;;;;;;;10.22;63.73;101330.19;5054752;28;19920;-51
2022/10/21 02:39:17;;;;;;;;;;;;;;;10.22;63.71;101330.19;5057788;28;19962;-51
2022/10/21 02:41:43;;;;;;;;;;;;;;;10.24;63.60;101328.34;5060752;28;20323;-51
2022/10/21 02:44:08;;;;;;;;;;;;;;;10.25;63.67;101331.84;5052915;28;20393;-50
2022/10/21 02:46:36;;;;;;;;;;;;;;;10.25;63.77;101327.44;5060563;28;19981;-51
2022/10/21 02:49:01;;;;;;;;;;;;;;;10.23;63.89;101308.22;5060756;28;20187;-50
2022/10/21 02:51:26;;;;;;;;;;;;;;;10.25;63.96;101305.53;5061781;28;19931;-50
2022/10/21 02:53:52;;;;;;;;;;;;;;;10.25;64.01;101298.50;5056965;28;19925;-51
2022/10/21 02:56:17;;;;;;;;;;;;;;;10.24;63.96;101294.16;5059874;28;20351;-51
2022/10/21 02:58:42;;;;;;;;;;;;;;;10.25;64.15;101282.72;5057964;28;19955;-51
2022/10/21 03:01:07;;;;;;;;;;;;;;;10.25;64.28;101282.72;5060979;28;19921;-51
2022/10/21 03:03:33;;;;;;;;;;;;;;;10.26;64.23;101284.41;5059689;28;19935;-51
2022/10/21 03:05:58;;;;;;;;;;;;;;;10.25;64.42;101269.56;5041234;28;20373;-51
2022/10/21 03:08:23;;;;;;;;;;;;;;;10.25;64.34;101280.09;5058997;28;19927;-50
2022/10/21 03:10:49;;;;;;;;;;;;;;;10.23;64.40;101271.41;5058001;28;19932;-51
2022/10/21 03:13:15;;;;;;;;;;;;;;;10.22;64.62;101272.34;5057854;28;19951;-51
2022/10/21 03:15:40;;;;;;;;;;;;;;;10.23;64.38;101276.66;5053710;28;19917;-51
2022/10/21 03:18:05;;;;;;;;;;;;;;;10.22;64.70;101267.06;5060676;28;19974;-51
2022/10/21 03:20:30;;;;;;;;;;;;;;;10.22;64.79;101267.94;5059414;28;19925;-51
2022/10/21 03:22:56;;;;;;;;;;;;;;;10.24;64.73;101262.59;5060158;28;20398;-52
2022/10/21 03:25:21;;;;;;;;;;;;;;;10.22;64.81;101261.81;5060852;28;19978;-52
2022/10/21 03:27:48;;;;;;;;;;;;;;;10.21;64.74;101260.97;5057153;28;19935;-51
2022/10/21 03:30:13;;;;;;;;;;;;;;;10.21;64.90;101255.72;5056948;28;19924;-50
2022/10/21 03:32:39;;;;;;;;;;;;;;;10.21;64.91;101249.59;5052870;28;19982;-52
2022/10/21 03:35:04;;;;;;;;;;;;;;;10.21;64.98;101229.41;5057811;28;19920;-49
2022/10/21 03:37:29;;;;;;;;;;;;;;;10.23;64.98;101231.97;5058424;28;19925;-49
2022/10/21 03:39:55;;;;;;;;;;;;;;;10.22;64.99;101225.88;5055319;28;19928;-53
2022/10/21 03:42:20;;;;;;;;;;;;;;;10.22;65.18;101219.72;5059975;28;20074;-52
2022/10/21 03:44:45;;;;;;;;;;;;;;;10.22;65.29;101217.09;5054782;28;19936;-49
2022/10/21 03:47:11;;;;;;;;;;;;;;;10.22;65.03;101214.47;5057016;28;19928;-50
2022/10/21 03:49:36;;;;;;;;;;;;;;;10.21;65.35;101194.34;5056248;28;20015;-51
2022/10/21 03:52:01;;;;;;;;;;;;;;;10.20;65.35;101190.88;5054702;28;19929;-53
2022/10/21 03:54:26;;;;;;;;;;;;;;;10.20;65.53;101180.38;5058595;28;19928;-51
2022/10/21 03:56:52;;;;;;;;;;;;;;;10.21;65.50;101181.22;5058736;28;19936;-50
2022/10/21 03:59:17;;;;;;;;;;;;;;;10.21;65.58;101186.47;5058273;28;20023;-50
2022/10/21 04:01:42;;;;;;;;;;;;;;;10.21;65.49;101187.34;5054377;28;19924;-50
2022/10/21 04:04:08;;;;;;;;;;;;;;;10.21;65.41;101197.84;5057169;28;19925;-50
2022/10/21 04:06:33;;;;;;;;;;;;;;;10.21;65.51;101195.22;5056583;28;19951;-49
2022/10/21 04:08:58;;;;;;;;;;;;;;;10.21;65.48;101203.13;5058735;28;19928;-53
2022/10/21 04:11:24;;;;;;;;;;;;;;;10.20;65.67;101201.41;5059108;28;20301;-50
2022/10/21 04:13:49;;;;;;;;;;;;;;;10.20;65.66;101196.16;5056878;28;19928;-56
2022/10/21 04:16:16;;;;;;;;;;;;;;;10.22;65.59;101188.16;5054169;28;20023;-50
2022/10/21 04:18:41;;;;;;;;;;;;;;;10.21;65.55;101182.06;5058999;28;19927;-49
2022/10/21 04:21:07;;;;;;;;;;;;;;;10.21;65.78;101174.19;5049917;28;20225;-49
2022/10/21 04:23:33;;;;;;;;;;;;;;;10.22;65.85;101178.53;5051836;28;20483;-50
2022/10/21 04:25:58;;;;;;;;;;;;;;;10.22;65.79;101182.91;5056631;28;19916;-51
2022/10/21 04:28:23;;;;;;;;;;;;;;;10.23;65.82;101179.34;5051206;28;20014;-54
2022/10/21 04:30:49;;;;;;;;;;;;;;;10.24;66.02;101167.91;5049134;28;19936;-50
2022/10/21 04:33:14;;;;;;;;;;;;;;;10.23;66.16;101166.22;5052130;28;19987;-50
2022/10/21 04:35:39;;;;;;;;;;;;;;;10.26;66.20;101175.75;5053148;28;20019;-49
2022/10/21 04:38:05;;;;;;;;;;;;;;;10.27;66.21;101182.72;5055222;28;19924;-53
2022/10/21 04:40:30;;;;;;;;;;;;;;;10.29;66.12;101179.06;5057639;28;19947;-49
2022/10/21 04:42:55;;;;;;;;;;;;;;;10.30;66.15;101170.25;5055694;28;19935;-51
2022/10/21 04:45:21;;;;;;;;;;;;;;;10.32;65.98;101176.28;5059434;28;19950;-54
2022/10/21 04:47:46;;;;;;;;;;;;;;;10.33;66.13;101170.09;5052454;28;19932;-50
2022/10/21 04:50:11;;;;;;;;;;;;;;;10.34;66.12;101158.66;5057359;28;19935;-50
2022/10/21 04:52:37;;;;;;;;;;;;;;;10.35;66.37;101167.38;5060404;28;19936;-51
2022/10/21 04:55:04;;;;;;;;;;;;;;;10.37;66.21;101161.09;5052330;28;20393;-49
2022/10/21 04:57:29;;;;;;;;;;;;;;;10.39;66.38;101154.94;5053969;28;19992;-50
2022/10/21 04:59:54;;;;;;;;;;;;;;;10.39;66.29;101153.19;5057684;28;20377;-53
2022/10/21 05:02:19;;;;;;;;;;;;;;;10.41;66.38;101150.47;5047517;28;19931;-52
2022/10/21 05:04:45;;;;;;;;;;;;;;;10.41;66.39;101139.94;5054279;28;19935;-49
2022/10/21 05:07:10;;;;;;;;;;;;;;;10.41;66.42;101140.81;5061449;28;19999;-50
2022/10/21 05:09:35;;;;;;;;;;;;;;;10.41;66.28;101124.16;5059590;28;19967;-50
2022/10/21 05:12:01;;;;;;;;;;;;;;;10.42;66.23;101133.75;5060476;28;19928;-50
2022/10/21 05:14:26;;;;;;;;;;;;;;;10.41;66.25;101134.69;5061905;28;19920;-49
2022/10/21 05:16:51;;;;;;;;;;;;;;;10.37;66.37;101133.97;5063626;28;20294;-49
2022/10/21 05:19:17;;;;;;;;;;;;;;;10.36;66.44;101130.47;5060548;28;20275;-52
2022/10/21 05:21:42;;;;;;;;;;;;;;;10.34;66.42;101119.19;5060803;28;20055;-52
2022/10/21 05:24:08;;;;;;;;;;;;;;;10.32;66.40;101121.06;5059974;28;20059;-50
2022/10/21 05:26:33;;;;;;;;;;;;;;;10.30;66.35;101117.66;5059567;28;19923;-50
2022/10/21 05:28:58;;;;;;;;;;;;;;;10.30;66.51;101117.66;5061814;28;20270;-51
2022/10/21 05:31:24;;;;;;;;;;;;;;;10.30;66.45;101108.88;5057184;28;19956;-53
2022/10/21 05:33:49;;;;;;;;;;;;;;;10.28;66.33;101098.47;5060043;28;20328;-54
2022/10/21 05:36:14;;;;;;;;;;;;;;;10.25;66.63;101082.81;5058146;28;20439;-51
2022/10/21 05:38:40;;;;;;;;;;;;;;;10.22;66.55;101088.22;5052500;28;20216;-49
2022/10/21 05:41:05;;;;;;;;;;;;;;;10.19;66.70;101083.16;5057174;28;19920;-50
2022/10/21 05:43:30;;;;;;;;;;;;;;;10.16;66.61;101083.31;5054563;28;20026;-52
2022/10/21 05:45:56;;;;;;;;;;;;;;;10.15;66.61;101081.59;5056426;28;20382;-51
2022/10/21 05:48:22;;;;;;;;;;;;;;;10.11;66.90;101077.41;5056332;28;20087;-49
2022/10/21 05:50:50;;;;;;;;;;;;;;;10.10;66.94;101076.59;5044583;28;19920;-53
2022/10/21 05:53:15;;;;;;;;;;;;;;;10.07;66.82;101080.19;5056522;28;19921;-49
2022/10/21 05:55:41;;;;;;;;;;;;;;;10.06;66.84;101072.41;5058289;28;20399;-53
2022/10/21 05:58:06;;;;;;;;;;;;;;;10.05;66.94;101070.69;5056495;28;19920;-50
2022/10/21 06:00:31;;;;;;;;;;;;;;;10.03;67.02;101068.16;5058985;28;20385;-50
2022/10/21 06:02:57;;;;;;;;;;;;;;;10.02;66.94;101068.22;5065691;28;20008;-49
2022/10/21 06:05:22;;;;;;;;;;;;;;;10.02;67.06;101065.59;5061026;28;19925;-49
2022/10/21 06:07:48;;;;;;;;;;;;;;;10.00;67.16;101063.03;5062995;28;19920;-50
2022/10/21 06:10:15;;;;;;;;;;;;;;;9.99;67.22;101066.59;5058964;28;19959;-49
2022/10/21 06:12:41;;;;;;;;;;;;;;;9.98;67.13;101066.69;5060108;28;19931;-49
2022/10/21 06:15:06;;;;;;;;;;;;;;;9.98;67.22;101067.53;5061900;28;19924;-49
2022/10/21 06:17:32;;;;;;;;;;;;;;;9.97;67.16;101072.88;5065711;28;19925;-50
2022/10/21 06:19:57;;;;;;;;;;;;;;;9.96;67.22;101071.16;5064882;28;20117;-49
2022/10/21 06:22:22;;;;;;;;;;;;;;;9.96;67.28;101074.63;5060828;28;20397;-49
2022/10/21 06:24:49;;;;;;;;;;;;;;;9.96;67.26;101086.94;5045827;28;19935;-49
2022/10/21 06:27:15;;;;;;;;;;;;;;;9.95;67.42;101080.81;5058449;28;20317;-53
2022/10/21 06:29:40;;;;;;;;;;;;;;;9.95;67.30;101093.97;5061394;28;19924;-51
2022/10/21 06:32:05;;;;;;;;;;;;;;;9.95;67.28;101096.59;5063367;28;20338;-50
2022/10/21 06:34:31;;;;;;;;;;;;;;;9.96;67.36;101093.03;5042561;28;20313;-50
2022/10/21 06:36:56;;;;;;;;;;;;;;;9.96;67.50;101095.66;5062488;28;19952;-51
2022/10/21 06:39:21;;;;;;;;;;;;;;;9.96;67.57;101090.41;5058337;28;19920;-53
2022/10/21 06:41:47;;;;;;;;;;;;;;;9.97;67.47;101091.28;5056678;28;19928;-49
2022/10/21 06:44:12;;;;;;;;;;;;;;;9.98;67.62;101090.34;5059002;28;20008;-50
2022/10/21 06:46:37;;;;;;;;;;;;;;;9.99;67.46;101100.78;5061111;28;19977;-49
2022/10/21 06:49:03;;;;;;;;;;;;;;;10.01;67.58;101095.44;5063132;28;19916;-49
2022/10/21 06:51:28;;;;;;;;;;;;;;;10.02;67.58;101098.00;5061712;28;19920;-49
2022/10/21 06:53:55;;;;;;;;;;;;;;;10.04;67.58;101106.66;5046786;28;19999;-52
2022/10/21 06:56:20;;;;;;;;;;;;;;;10.09;67.57;101102.94;5063815;28;19920;-53
2022/10/21 06:58:47;;;;;;;;;;;;;;;10.12;67.54;101100.16;5063824;28;19996;-50
2022/10/21 07:01:23;;;;;;;;;;;;;;;10.14;67.32;101095.69;5064613;28;19983;-51
2022/10/21 07:03:49;;;;;;;;;;;;;;;10.17;67.47;101103.41;5063255;28;20313;-51
2022/10/21 07:06:15;;;;;;;;;;;;;;;10.20;67.63;101100.63;5065752;28;19924;-49
2022/10/21 07:08:40;;;;;;;;;;;;;;;10.23;67.47;101100.47;5061445;28;19920;-50
2022/10/21 07:11:06;;;;;;;;;;;;;;;10.27;67.54;101107.28;5061735;28;19924;-51
2022/10/21 07:13:33;;;;;;;;;;;;;;;10.32;67.43;101105.28;5061595;28;19920;-50
2022/10/21 07:15:58;;;;;;;;;;;;;;;10.37;67.24;101111.13;5060529;28;19966;-49
2022/10/21 07:18:24;;;;;;;;;;;;;;;10.41;67.16;101101.34;5063955;28;20010;-52
2022/10/21 07:20:49;;;;;;;;;;;;;;;10.46;67.31;101101.13;5061481;28;19917;-51
2022/10/21 07:23:15;;;;;;;;;;;;;;;10.49;67.10;101098.34;5061287;28;20377;-50
2022/10/21 07:25:40;;;;;;;;;;;;;;;10.53;67.15;101097.22;5063804;28;19931;-51
2022/10/21 07:28:05;;;;;;;;;;;;;;;10.57;67.17;101100.56;5063476;28;19941;-49
2022/10/21 07:30:30;;;;;;;;;;;;;;;10.58;67.35;101084.69;5063457;28;19961;-50
2022/10/21 07:32:56;;;;;;;;;;;;;;;10.62;67.11;101091.50;5058446;28;19935;-51
2022/10/21 07:35:22;;;;;;;;;;;;;;;10.65;67.28;101090.47;5063299;28;19916;-49
2022/10/21 07:37:47;;;;;;;;;;;;;;;10.68;67.45;101085.88;5058157;28;20311;-49
2022/10/21 07:40:13;;;;;;;;;;;;;;;10.72;67.33;101091.00;5060057;28;20486;-50
2022/10/21 07:42:38;;;;;;;;;;;;;;;10.75;67.25;101096.09;5062536;28;19916;-50
2022/10/21 07:45:04;;;;;;;;;;;;;;;10.76;67.29;101092.53;5062656;28;20489;-49
2022/10/21 07:47:29;;;;;;;;;;;;;;;10.79;67.35;101089.75;5055125;28;19963;-50
2022/10/21 07:49:54;;;;;;;;;;;;;;;10.80;67.32;101091.47;5059934;28;20334;-52
2022/10/21 07:52:20;;;;;;;;;;;;;;;10.81;67.34;101088.72;5057564;28;19931;-49
2022/10/21 07:54:45;;;;;;;;;;;;;;;10.84;67.40;101090.34;5058031;28;20410;-51
2022/10/21 07:57:10;;;;;;;;;;;;;;;10.85;67.24;101092.03;5060274;28;19981;-49
2022/10/21 07:59:35;;;;;;;;;;;;;;;10.86;67.36;101088.47;5057934;28;19921;-49
2022/10/21 08:02:01;;;;;;;;;;;;;;;10.86;67.53;101083.22;5061983;28;19924;-51
2022/10/21 08:04:30;;;;;;;;;;;;;;;10.88;67.73;101089.25;5057500;28;20389;-49
2022/10/21 08:06:56;;;;;;;;;;;;;;;10.93;67.51;101083.75;5056094;28;20015;-50
2022/10/21 08:09:21;;;;;;;;;;;;;;;10.95;67.64;101090.66;5058084;28;20086;-49
2022/10/21 08:11:47;;;;;;;;;;;;;;;11.00;67.68;101092.16;5060035;28;19936;-49
2022/10/21 08:14:12;;;;;;;;;;;;;;;11.04;67.59;101089.25;5060601;28;19920;-49
2022/10/21 08:16:38;;;;;;;;;;;;;;;11.08;67.61;101087.34;5059289;28;19943;-53
2022/10/21 08:19:04;;;;;;;;;;;;;;;11.13;67.46;101090.56;5057089;28;19913;-49
2022/10/21 08:21:32;;;;;;;;;;;;;;;11.17;67.40;101089.47;5056836;28;20164;-51
2022/10/21 08:24:00;;;;;;;;;;;;;;;11.20;67.45;101084.03;5055938;28;20415;-52
2022/10/21 08:26:25;;;;;;;;;;;;;;;11.26;67.48;101086.34;5057108;28;20396;-52
2022/10/21 08:28:50;;;;;;;;;;;;;;;11.31;67.51;101082.56;5057233;28;19921;-49
2022/10/21 08:31:20;;;;;;;;;;;;;;;11.34;67.39;101085.91;5056832;28;19924;-51
2022/10/21 08:33:45;;;;;;;;;;;;;;;11.38;67.20;101083.94;5058008;28;20585;-50
2022/10/21 08:36:12;;;;;;;;;;;;;;;11.42;67.46;101086.31;5057069;28;19960;-49
2022/10/21 08:38:37;;;;;;;;;;;;;;;11.47;66.99;101083.41;5057485;28;20377;-50
2022/10/21 08:41:10;;;;;;;;;;;;;;;11.52;67.27;101076.13;5056909;28;19978;-49
2022/10/21 08:43:36;;;;;;;;;;;;;;;11.57;67.18;101074.06;5052429;28;19935;-49
2022/10/21 08:46:02;;;;;;;;;;;;;;;11.61;67.21;101064.22;5054255;28;20293;-49
2022/10/21 08:48:39;;;;;;;;;;;;;;;11.65;67.05;101064.88;5055934;28;19925;-50
2022/10/21 08:51:05;;;;;;;;;;;;;;;11.69;67.24;101069.03;5040830;28;20011;-51
2022/10/21 08:53:43;;;;;;;;;;;;;;;11.73;66.94;101067.91;5056812;28;20020;-53
2022/10/21 08:56:11;;;;;;;;;;;;;;;11.78;66.97;101060.59;5058011;28;20183;-53
2022/10/21 08:58:36;;;;;;;;;;;;;;;11.82;67.12;101067.41;5056757;28;19921;-50
2022/10/21 09:01:04;;;;;;;;;;;;;;;11.87;67.09;101069.75;5057427;28;19990;-50
2022/10/21 09:03:32;;;;;;;;;;;;;;;11.89;66.94;101065.25;5056614;28;19959;-52
2022/10/21 09:06:04;;;;;;;;;;;;;;;11.92;67.09;101066.84;5057099;28;19928;-49
2022/10/21 09:08:42;;;;;;;;;;;;;;;11.94;67.12;101062.34;5055210;28;19943;-49
2022/10/21 09:11:18;;;;;;;;;;;;;;;11.97;67.15;101056.88;5056251;28;19916;-49
2022/10/21 09:14:06;;;;;;;;;;;;;;;11.99;66.99;101049.78;5058323;28;19924;-49
2022/10/21 09:16:40;;;;;;;;;;;;;;;12.00;67.30;101056.75;5058794;28;19916;-50
2022/10/21 09:19:24;;;;;;;;;;;;;;;12.03;67.13;101065.31;5054444;28;20354;-49
2022/10/21 09:21:58;;;;;;;;;;;;;;;12.06;67.24;101052.91;5056143;28;19916;-53
2022/10/21 09:24:26;;;;;;;;;;;;;;;12.09;67.28;101048.28;5057225;28;19969;-51
2022/10/21 09:26:51;;;;;;;;;;;;;;;12.13;67.13;101043.66;5058309;28;20483;-52
2022/10/21 09:29:25;;;;;;;;;;;;;;;12.14;67.37;101040.97;5054001;28;19924;-50
2022/10/21 09:31:50;;;;;;;;;;;;;;;12.18;67.34;101042.44;5059137;28;19925;-49
2022/10/21 09:34:33;;;;;;;;;;;;;;;12.21;67.23;101041.44;5056903;28;19921;-49
2022/10/21 09:37:00;;;;;;;;;;;;;;;12.24;67.18;101029.84;5058305;28;19967;-49
2022/10/21 09:39:35;;;;;;;;;;;;;;;12.25;67.18;101031.53;5056458;28;20145;-50
2022/10/21 09:42:00;;;;;;;;;;;;;;;12.27;67.08;101034.94;5057242;28;19960;-51
2022/10/21 09:44:26;;;;;;;;;;;;;;;12.29;67.16;101028.63;5054124;28;19928;-51
2022/10/21 09:46:52;;;;;;;;;;;;;;;12.34;67.23;101033.59;5055684;28;19921;-49
2022/10/21 09:49:38;;;;;;;;;;;;;;;12.36;67.33;101034.38;5053662;28;20496;-52
2022/10/21 09:52:04;;;;;;;;;;;;;;;12.40;67.16;101032.41;5052665;28;20487;-53
2022/10/21 09:54:36;;;;;;;;;;;;;;;12.42;67.23;101027.88;5055086;28;19931;-51
2022/10/21 09:57:12;;;;;;;;;;;;;;;12.42;67.27;101023.44;5055754;28;19921;-50
2022/10/21 09:59:50;;;;;;;;;;;;;;;12.42;67.30;101018.19;5056807;28;19920;-50
2022/10/21 10:02:22;;;;;;;;;;;;;;;12.43;67.29;101009.31;5057745;28;20448;-50
2022/10/21 10:04:48;;;;;;;;;;;;;;;12.41;67.27;101003.28;5055712;28;20050;-50
2022/10/21 10:07:26;;;;;;;;;;;;;;;12.42;67.07;100996.19;5059430;28;20051;-54
2022/10/21 10:09:52;;;;;;;;;;;;;;;12.41;67.16;100995.38;5054398;28;20193;-49
2022/10/21 10:12:21;;;;;;;;;;;;;;;12.40;67.25;100995.47;5057148;28;20491;-50
2022/10/21 10:14:46;;;;;;;;;;;;;;;12.39;67.23;100993.78;5056125;28;20448;-50
2022/10/21 10:17:17;;;;;;;;;;;;;;;12.39;67.38;100991.97;5053104;28;19929;-50
2022/10/21 10:19:55;;;;;;;;;;;;;;;12.42;67.41;100990.91;5057880;28;19931;-50
2022/10/21 10:22:20;;;;;;;;;;;;;;;12.46;67.48;100987.16;5055271;28;19960;-49
2022/10/21 10:24:45;;;;;;;;;;;;;;;12.50;67.39;100989.50;5044040;28;19971;-49
2022/10/21 10:27:18;;;;;;;;;;;;;;;12.54;67.26;100978.75;5053881;28;20002;-50
2022/10/21 10:29:48;;;;;;;;;;;;;;;12.59;67.20;100980.16;5055627;28;20331;-51
2022/10/21 10:32:15;;;;;;;;;;;;;;;12.65;67.52;100989.50;5056747;28;19951;-50
2022/10/21 10:34:52;;;;;;;;;;;;;;;12.68;67.24;100986.66;5058251;28;19929;-49
2022/10/21 10:37:23;;;;;;;;;;;;;;;12.74;67.31;100996.00;5058267;28;19929;-50
2022/10/21 10:39:51;;;;;;;;;;;;;;;12.78;67.15;101003.63;5061371;28;20313;-50
2022/10/21 10:42:18;;;;;;;;;;;;;;;12.82;67.22;100988.44;5061937;28;20487;-53
2022/10/21 10:44:43;;;;;;;;;;;;;;;12.86;67.32;100989.94;5064854;28;19931;-51
2022/10/21 10:47:29;;;;;;;;;;;;;;;12.90;67.27;100985.31;5060634;28;19920;-52
2022/10/21 10:49:54;;;;;;;;;;;;;;;12.94;67.17;100981.53;5062549;28;20317;-53
2022/10/21 10:52:23;;;;;;;;;;;;;;;12.97;67.07;100981.31;5062413;28;20000;-50
2022/10/21 10:55:08;;;;;;;;;;;;;;;13.00;67.02;100981.13;5064795;28;19920;-52
2022/10/21 10:57:34;;;;;;;;;;;;;;;13.03;67.10;100975.66;5062829;28;20008;-52
2022/10/21 11:00:04;;;;;;;;;;;;;;;13.03;67.05;100970.38;5063134;28;19924;-52
2022/10/21 11:02:42;;;;;;;;;;;;;;;13.04;67.15;100974.72;5064389;28;19921;-51
2022/10/21 11:05:14;;;;;;;;;;;;;;;13.06;67.19;100978.13;5061893;28;19916;-54
2022/10/21 11:07:44;;;;;;;;;;;;;;;13.10;66.85;100982.22;5063986;28;19919;-53
2022/10/21 11:10:21;;;;;;;;;;;;;;;13.14;66.94;100982.03;5063766;28;20157;-52
2022/10/21 11:12:47;;;;;;;;;;;;;;;13.15;67.06;100974.03;5063904;28;19927;-51
2022/10/21 11:15:13;;;;;;;;;;;;;;;13.14;66.97;100969.69;5064013;28;19928;-53
2022/10/21 11:17:43;;;;;;;;;;;;;;;13.15;66.96;100962.59;5057601;28;19925;-53
2022/10/21 11:20:33;;;;;;;;;;;;;;;13.15;67.15;100965.25;5057697;28;20329;-52
2022/10/21 11:23:16;;;;;;;;;;;;;;;13.16;67.11;100945.81;5058080;28;19921;-54
2022/10/21 11:25:42;;;;;;;;;;;;;;;13.16;67.28;100945.81;5060370;28;20394;-52
2022/10/21 11:28:26;;;;;;;;;;;;;;;13.16;67.20;100937.88;5057320;28;19916;-52
2022/10/21 11:30:51;;;;;;;;;;;;;;;13.16;67.36;100938.72;5058847;28;19965;-52
2022/10/21 11:33:22;;;;;;;;;;;;;;;13.16;67.35;100932.59;5060076;28;19925;-52
2022/10/21 11:36:11;;;;;;;;;;;;;;;13.17;67.41;100937.75;5058604;28;20003;-54
2022/10/21 11:38:37;;;;;;;;;;;;;;;13.20;67.31;100928.81;5060613;28;20023;-51
2022/10/21 11:41:12;;;;;;;;;;;;;;;13.21;67.50;100920.75;5058269;28;20590;-52
2022/10/21 11:43:52;;;;;;;;;;;;;;;13.24;67.57;100919.72;5060447;28;19916;-53
2022/10/21 11:46:26;;;;;;;;;;;;;;;13.28;67.61;100921.22;5054394;28;19954;-52
2022/10/21 11:49:04;;;;;;;;;;;;;;;13.30;67.41;100900.81;5059175;28;19932;-53
2022/10/21 11:51:32;;;;;;;;;;;;;;;13.34;67.49;100893.50;5058659;28;20349;-53
2022/10/21 11:54:00;;;;;;;;;;;;;;;13.36;67.47;100897.78;5054638;28;20011;-51
2022/10/21 11:56:25;;;;;;;;;;;;;;;13.37;67.35;100898.59;5059849;28;20019;-54
2022/10/21 11:58:50;;;;;;;;;;;;;;;13.39;67.33;100894.06;5058786;28;20014;-54
2022/10/21 12:01:26;;;;;;;;;;;;;;;13.41;67.53;100893.03;5059231;28;20121;-51
2022/10/21 12:03:51;;;;;;;;;;;;;;;13.41;67.44;100898.31;5057735;28;20046;-54
2022/10/21 12:06:16;;;;;;;;;;;;;;;13.44;67.36;100899.06;5057246;28;20026;-53
2022/10/21 12:08:42;;;;;;;;;;;;;;;13.43;67.35;100900.00;5056815;28;19928;-50
2022/10/21 12:11:16;;;;;;;;;;;;;;;13.45;67.52;100898.13;5054301;28;19916;-51
2022/10/21 12:13:46;;;;;;;;;;;;;;;13.45;67.46;100901.63;5055227;28;20294;-53
2022/10/21 12:16:15;;;;;;;;;;;;;;;13.46;67.56;100898.00;5054246;28;19920;-51
2022/10/21 12:18:51;;;;;;;;;;;;;;;13.49;67.45;100891.69;5056632;28;19916;-52
2022/10/21 12:21:19;;;;;;;;;;;;;;;13.51;67.32;100893.25;5058140;28;19943;-53
2022/10/21 12:23:48;;;;;;;;;;;;;;;13.51;67.27;100893.25;5055760;28;19924;-53
2022/10/21 12:26:25;;;;;;;;;;;;;;;13.53;67.46;100896.66;5059702;28;20333;-54
2022/10/21 12:28:56;;;;;;;;;;;;;;;13.56;67.34;100903.53;5056345;28;20027;-50
2022/10/21 12:31:27;;;;;;;;;;;;;;;13.57;67.36;100897.28;5060932;28;20467;-54
2022/10/21 12:33:54;;;;;;;;;;;;;;;13.57;67.31;100894.63;5055606;28;19982;-51
2022/10/21 12:36:22;;;;;;;;;;;;;;;13.59;67.28;100905.13;5063022;28;19928;-53
2022/10/21 12:38:50;;;;;;;;;;;;;;;13.61;67.29;100897.94;5057445;28;20883;-54
2022/10/21 12:41:38;;;;;;;;;;;;;;;13.64;67.35;100901.22;5058651;28;20029;-52
2022/10/21 12:44:16;;;;;;;;;;;;;;;13.68;67.19;100900.06;5059620;28;19932;-52